Time;durP1;ratioP1;P1;durP2;ratioP2;P2;SDS_P1;SDS_P2;PMS_P1;PMS_P2;Temp;Humidity;BMP_temperature;BMP_pressure;BME280_temperature;BME280_humidity;BME280_pressure;Samples;Min_cycle;Max_cycle;Signal;HPM_P1;HPM_P2
2022/08/16 00:02:05;;;;;;;6.45;4.07;;;;;;;16.19;72.33;92046.25;5022401;28;20054;-78
2022/08/16 00:04:31;;;;;;;8.18;4.43;;;;;;;16.18;72.72;92052.63;5040776;28;20040;-79
2022/08/16 00:06:57;;;;;;;6.90;4.50;;;;;;;16.15;73.12;92046.16;5039711;28;20033;-79
2022/08/16 00:09:23;;;;;;;8.73;4.90;;;;;;;16.13;73.79;92042.28;5041491;28;20080;-78
2022/08/16 00:11:49;;;;;;;7.47;4.28;;;;;;;16.08;74.11;92035.38;5040327;28;20544;-79
2022/08/16 00:14:19;;;;;;;9.75;4.70;;;;;;;16.08;74.38;92034.59;5040621;28;20037;-79
2022/08/16 00:16:46;;;;;;;7.15;4.10;;;;;;;16.05;74.49;92056.38;5031109;28;20017;-79
2022/08/16 00:19:17;;;;;;;10.18;4.60;;;;;;;16.00;74.64;92052.84;5026852;28;20052;-79
2022/08/16 00:21:43;;;;;;;8.18;4.82;;;;;;;15.93;74.21;92057.91;5022887;28;20113;-79
2022/08/16 00:24:09;;;;;;;8.13;4.20;;;;;;;15.92;73.99;92064.28;5041239;28;20108;-79
2022/08/16 00:26:35;;;;;;;9.27;4.30;;;;;;;15.87;74.34;92063.72;5040175;28;20399;-79
2022/08/16 00:29:01;;;;;;;7.65;4.63;;;;;;;15.86;74.66;92062.97;5039531;28;20037;-79
2022/08/16 00:31:30;;;;;;;7.45;4.45;;;;;;;15.78;74.33;92064.63;5038795;28;20033;-79
2022/08/16 00:33:56;;;;;;;8.50;4.32;;;;;;;15.81;73.97;92061.31;5022021;28;20403;-79
2022/08/16 00:36:22;;;;;;;8.07;4.38;;;;;;;15.80;73.80;92058.97;5038316;28;20036;-79
2022/08/16 00:38:47;;;;;;;7.20;4.50;;;;;;;15.85;73.42;92060.63;5039571;28;20080;-79
2022/08/16 00:41:13;;;;;;;6.35;4.20;;;;;;;15.87;73.08;92053.94;5005538;28;20105;-79
2022/08/16 00:43:39;;;;;;;8.45;4.43;;;;;;;15.87;72.76;92056.56;5022007;28;20091;-79
2022/08/16 00:46:18;;;;;;;7.07;4.40;;;;;;;15.87;72.57;92063.72;4973162;28;20037;-79
2022/08/16 00:48:44;;;;;;;6.90;3.78;;;;;;;15.86;71.96;92060.31;5021279;28;20120;-79
2022/08/16 00:51:12;;;;;;;6.40;4.05;;;;;;;15.85;72.04;92071.19;4985255;28;20064;-79
2022/08/16 00:53:38;;;;;;;6.72;3.78;;;;;;;15.79;72.43;92068.78;5002075;28;20145;-79
2022/08/16 00:56:08;;;;;;;7.45;4.47;;;;;;;15.72;72.83;92068.56;5001417;28;20049;-79
2022/08/16 00:58:38;;;;;;;6.00;3.97;;;;;;;15.66;73.01;92058.50;5036616;28;20513;-79
2022/08/16 01:01:05;;;;;;;7.38;4.45;;;;;;;15.66;73.20;92063.78;5021290;28;20118;-79
2022/08/16 01:03:31;;;;;;;9.82;3.95;;;;;;;15.64;73.49;92072.00;5022080;28;20056;-79
2022/08/16 01:05:57;;;;;;;6.82;4.10;;;;;;;15.64;73.83;92071.25;5021135;28;20545;-78
2022/08/16 01:08:25;;;;;;;8.30;4.47;;;;;;;15.57;74.15;92075.19;5037934;28;20402;-79
2022/08/16 01:10:51;;;;;;;6.18;4.45;;;;;;;15.54;74.28;92073.22;5020824;28;20045;-79
2022/08/16 01:13:25;;;;;;;9.70;4.30;;;;;;;15.49;74.34;92076.06;5021283;28;20048;-79
2022/08/16 01:15:59;;;;;;;6.95;4.20;;;;;;;15.47;74.77;92080.09;5021422;28;20172;-79
2022/08/16 01:18:31;;;;;;;7.50;4.05;;;;;;;15.43;74.35;92077.34;5021868;28;20030;-79
2022/08/16 01:21:36;;;;;;;6.95;4.00;;;;;;;15.43;74.35;92080.00;5021455;28;20459;-79
2022/08/16 01:24:39;;;;;;;6.97;4.10;;;;;;;15.41;74.25;92080.31;5020780;28;20033;-79
2022/08/16 01:27:16;;;;;;;8.20;4.55;;;;;;;15.39;74.54;92087.00;5007668;28;20049;-78
2022/08/16 01:29:56;;;;;;;8.85;4.47;;;;;;;15.38;74.43;92091.53;5019844;28;20038;-79
2022/08/16 01:32:22;;;;;;;7.25;4.45;;;;;;;15.36;74.43;92093.72;5021009;28;20037;-79
2022/08/16 01:34:47;;;;;;;7.57;4.68;;;;;;;15.37;74.65;92099.75;5005534;28;20373;-79
2022/08/16 01:37:14;;;;;;;9.25;4.90;;;;;;;15.34;74.95;92098.53;5020487;28;20487;-79
2022/08/16 01:39:41;;;;;;;9.05;5.43;;;;;;;15.30;75.22;92091.59;5021151;28;20045;-78
2022/08/16 01:42:08;;;;;;;8.63;4.82;;;;;;;15.30;75.74;92100.28;5038859;28;20059;-78
2022/08/16 01:44:36;;;;;;;8.63;4.70;;;;;;;15.30;75.50;92095.00;5020562;28;20503;-78
2022/08/16 01:47:02;;;;;;;8.20;4.07;;;;;;;15.30;75.58;92099.50;5038885;28;20483;-80
2022/08/16 01:49:32;;;;;;;7.47;4.43;;;;;;;15.27;75.66;92100.16;5035860;28;20033;-79
2022/08/16 01:52:03;;;;;;;7.22;4.30;;;;;;;15.23;75.76;92094.00;5020716;28;20407;-79
2022/08/16 01:54:47;;;;;;;9.95;4.40;;;;;;;15.16;76.03;92097.16;5039379;28;20043;-79
2022/08/16 01:57:13;;;;;;;9.05;4.63;;;;;;;15.16;75.67;92092.63;5021594;28;20550;-79
2022/08/16 01:59:40;;;;;;;7.53;4.75;;;;;;;15.15;76.27;92092.97;5004476;28;20033;-79
2022/08/16 02:02:08;;;;;;;7.55;4.35;;;;;;;15.12;76.65;92094.38;5019612;28;20064;-79
2022/08/16 02:04:34;;;;;;;7.00;4.53;;;;;;;15.10;77.66;92101.84;5021010;28;20065;-79
2022/08/16 02:07:07;;;;;;;10.85;4.85;;;;;;;15.02;78.79;92100.06;5003668;28;20037;-79
2022/08/16 02:09:36;;;;;;;7.78;4.88;;;;;;;15.01;78.77;92105.66;5020868;28;20042;-79
2022/08/16 02:12:08;;;;;;;7.32;4.70;;;;;;;14.99;78.98;92104.13;5020550;28;20673;-79
2022/08/16 02:14:35;;;;;;;6.97;4.80;;;;;;;14.98;78.66;92107.06;5020832;28;20096;-79
2022/08/16 02:17:04;;;;;;;7.25;4.43;;;;;;;14.98;78.75;92099.16;5019495;28;20041;-79
2022/08/16 02:19:33;;;;;;;6.53;4.50;;;;;;;14.96;78.74;92096.06;5020411;28;20036;-79
2022/08/16 02:22:00;;;;;;;7.15;4.57;;;;;;;14.97;79.04;92094.97;5020969;28;20072;-78
2022/08/16 02:24:26;;;;;;;15.48;5.43;;;;;;;14.98;79.69;92091.25;5003103;28;20044;-79
2022/08/16 02:26:52;;;;;;;8.45;4.85;;;;;;;14.98;79.61;92092.00;5019658;28;20361;-77
2022/08/16 02:29:19;;;;;;;7.50;4.88;;;;;;;14.99;79.12;92095.41;5034891;28;20041;-80
2022/08/16 02:31:48;;;;;;;6.60;4.43;;;;;;;14.97;78.83;92098.38;5016768;28;20404;-78
2022/08/16 02:34:15;;;;;;;7.45;4.70;;;;;;;14.94;78.92;92087.72;5020082;28;20025;-78
2022/08/16 02:36:41;;;;;;;8.05;4.45;;;;;;;14.98;78.51;92099.91;5019726;28;20033;-78
2022/08/16 02:39:10;;;;;;;9.90;4.32;;;;;;;14.99;77.96;92103.31;5019789;28;20040;-77
2022/08/16 02:41:38;;;;;;;7.10;3.90;;;;;;;14.99;76.78;92090.16;5003704;28;20032;-79
2022/08/16 02:44:05;;;;;;;6.50;4.15;;;;;;;14.99;75.76;92090.94;5019668;28;20017;-78
2022/08/16 02:46:32;;;;;;;7.53;4.72;;;;;;;15.02;75.21;92099.25;5002455;28;20128;-79
2022/08/16 02:48:59;;;;;;;6.82;4.20;;;;;;;15.03;74.61;92104.22;5019434;28;20095;-78
2022/08/16 02:51:26;;;;;;;7.07;4.30;;;;;;;15.04;74.32;92108.41;5019634;28;20444;-78
2022/08/16 02:53:53;;;;;;;6.53;4.05;;;;;;;15.06;74.04;92110.72;5019815;28;20037;-79
2022/08/16 02:56:21;;;;;;;7.47;3.97;;;;;;;15.03;73.73;92096.31;5018511;28;20042;-79
2022/08/16 02:58:49;;;;;;;6.88;4.10;;;;;;;15.04;74.08;92102.34;5003609;28;20033;-79
2022/08/16 03:01:25;;;;;;;6.60;4.30;;;;;;;15.06;73.79;92111.47;5038119;28;20533;-78
2022/08/16 03:03:54;;;;;;;8.90;3.95;;;;;;;15.07;74.04;92110.41;5024736;28;20091;-79
2022/08/16 03:06:21;;;;;;;5.93;4.10;;;;;;;15.05;73.87;92099.41;5000758;28;20025;-78
2022/08/16 03:08:50;;;;;;;6.88;4.10;;;;;;;15.05;73.51;92104.69;4985920;28;20030;-79
2022/08/16 03:11:18;;;;;;;9.10;4.40;;;;;;;15.08;73.80;92096.13;5028485;28;20038;-78
2022/08/16 03:13:46;;;;;;;6.45;3.58;;;;;;;15.10;73.26;92104.47;5012001;28;20167;-78
2022/08/16 03:16:12;;;;;;;5.63;3.75;;;;;;;15.08;73.47;92098.75;5023750;28;20558;-78
2022/08/16 03:18:39;;;;;;;8.82;4.20;;;;;;;15.06;73.40;92095.66;5007315;28;20083;-78
2022/08/16 03:21:06;;;;;;;7.55;3.90;;;;;;;15.07;73.66;92094.59;5006981;28;20455;-79
2022/08/16 03:23:32;;;;;;;8.02;3.85;;;;;;;15.03;73.78;92091.03;5007795;28;20068;-78
2022/08/16 03:25:58;;;;;;;6.72;3.95;;;;;;;15.00;73.89;92086.44;5041433;28;20734;-78
2022/08/16 03:28:24;;;;;;;6.35;4.13;;;;;;;14.97;74.12;92093.13;5023334;28;20033;-78
2022/08/16 03:30:50;;;;;;;8.30;3.92;;;;;;;14.98;73.45;92088.63;5023252;28;20092;-78
2022/08/16 03:33:16;;;;;;;5.85;4.15;;;;;;;14.99;73.49;92096.22;5041733;28;20041;-79
2022/08/16 03:35:48;;;;;;;;;;;;;;;15.01;73.41;92092.47;5007971;28;20055;-78
2022/08/16 03:38:20;;;;;;;7.88;3.88;;;;;;;15.02;73.14;92094.78;5023516;28;19939;-79
2022/08/16 03:40:49;;;;;;;6.03;4.00;;;;;;;15.02;73.22;92092.16;5008087;28;20117;-79
2022/08/16 03:43:14;;;;;;;7.32;4.10;;;;;;;15.03;72.87;92093.69;5023346;28;20052;-78
2022/08/16 03:45:40;;;;;;;5.95;3.95;;;;;;;15.05;72.82;92091.50;5006942;28;20053;-78
2022/08/16 03:48:08;;;;;;;7.07;3.90;;;;;;;15.05;72.90;92094.13;5022957;28;20041;-78
2022/08/16 03:50:36;;;;;;;7.55;4.07;;;;;;;15.05;72.36;92088.84;5023486;28;20128;-79
2022/08/16 03:53:03;;;;;;;8.70;4.47;;;;;;;15.06;72.16;92095.66;5022355;28;20065;-78
2022/08/16 03:55:29;;;;;;;6.88;3.72;;;;;;;15.08;72.04;92098.75;5022655;28;20021;-79
2022/08/16 03:57:55;;;;;;;5.47;3.63;;;;;;;15.07;72.20;92107.75;5007466;28;20044;-79
2022/08/16 04:00:28;;;;;;;8.00;3.72;;;;;;;15.08;72.38;92104.03;5005488;28;20056;-79
2022/08/16 04:02:55;;;;;;;6.43;4.00;;;;;;;15.05;72.21;92099.41;5004771;28;20121;-79
2022/08/16 04:05:21;;;;;;;8.35;4.47;;;;;;;15.07;72.18;92101.72;5003302;28;20763;-79
2022/08/16 04:07:47;;;;;;;7.65;3.85;;;;;;;15.05;72.63;92098.63;5022321;28;20037;-78
2022/08/16 04:10:14;;;;;;;6.57;3.80;;;;;;;15.07;72.37;92104.38;5022475;28;20035;-79
2022/08/16 04:12:42;;;;;;;6.13;4.13;;;;;;;15.07;72.04;92107.00;5022391;28;20038;-79
2022/08/16 04:15:11;;;;;;;6.53;4.05;;;;;;;15.04;72.07;92097.88;5023431;28;20033;-79
2022/08/16 04:17:43;;;;;;;7.03;3.95;;;;;;;15.02;72.16;92100.06;5022430;28;20037;-79
2022/08/16 04:20:12;;;;;;;7.60;3.63;;;;;;;15.00;71.78;92104.88;5022622;28;20379;-79
2022/08/16 04:22:38;;;;;;;6.80;3.63;;;;;;;14.99;71.98;92100.69;5005918;28;20037;-78
2022/08/16 04:25:05;;;;;;;7.65;3.70;;;;;;;14.96;72.26;92112.66;5021209;28;20042;-79
2022/08/16 04:27:35;;;;;;;7.40;3.90;;;;;;;14.96;72.14;92112.66;5039142;28;20038;-79
2022/08/16 04:30:05;;;;;;;8.02;3.83;;;;;;;14.96;72.68;92117.16;5022256;28;20052;-78
2022/08/16 04:32:36;;;;;;;6.97;4.05;;;;;;;14.96;72.65;92119.78;5021063;28;20506;-79
2022/08/16 04:35:08;;;;;;;6.30;3.90;;;;;;;14.94;72.78;92125.38;5020706;28;20029;-79
2022/08/16 04:37:35;;;;;;;6.47;3.97;;;;;;;14.97;72.99;92129.22;5021742;28;20055;-79
2022/08/16 04:40:10;;;;;;;5.78;3.67;;;;;;;14.97;73.02;92132.66;5022119;28;20033;-79
2022/08/16 04:42:41;;;;;;;6.15;3.97;;;;;;;14.98;72.68;92136.81;5005877;28;20033;-79
2022/08/16 04:45:09;;;;;;;5.78;3.80;;;;;;;15.02;72.44;92133.53;5022238;28;20060;-79
2022/08/16 04:47:35;;;;;;;5.60;3.25;;;;;;;15.07;72.43;92141.25;5005674;28;20038;-78
2022/08/16 04:50:09;;;;;;;5.85;4.05;;;;;;;15.12;72.40;92138.44;5022775;28;20075;-79
2022/08/16 04:52:36;;;;;;;9.77;4.28;;;;;;;15.18;72.49;92155.59;5005150;28;20129;-79
2022/08/16 04:55:06;;;;;;;7.18;3.92;;;;;;;15.15;72.51;92143.84;5023349;28;20037;-78
2022/08/16 04:57:32;;;;;;;5.93;3.67;;;;;;;15.33;72.62;92156.88;5016362;28;20029;-80
2022/08/16 04:59:58;;;;;;;7.55;3.72;;;;;;;15.38;72.47;92160.09;5002204;28;20301;-76
2022/08/16 05:02:23;;;;;;;6.68;3.70;;;;;;;15.44;72.26;92158.00;4993740;28;20030;-77
2022/08/16 05:04:49;;;;;;;7.55;3.95;;;;;;;15.50;73.29;92156.72;5000004;28;20418;-77
2022/08/16 05:07:15;;;;;;;6.93;3.97;;;;;;;15.53;73.32;92166.63;4995172;28;20442;-78
2022/08/16 05:09:56;;;;;;;6.73;4.03;;;;;;;15.62;72.88;92169.94;5017633;28;20029;-78
2022/08/16 05:12:22;;;;;;;8.93;4.07;;;;;;;15.72;72.51;92165.41;5018492;28;20120;-78
2022/08/16 05:14:47;;;;;;;5.38;3.65;;;;;;;15.81;71.97;92168.75;5018052;28;20107;-78
2022/08/16 05:17:19;;;;;;;7.10;3.72;;;;;;;15.91;71.81;92168.31;5009444;28;20376;-79
2022/08/16 05:19:46;;;;;;;12.88;4.03;;;;;;;16.02;71.69;92177.34;5011398;28;20103;-78
2022/08/16 05:22:14;;;;;;;6.10;3.97;;;;;;;16.10;71.84;92172.31;5013118;28;20037;-77
2022/08/16 05:24:41;;;;;;;6.95;4.20;;;;;;;16.16;72.41;92171.00;5001971;28;20103;-78
2022/08/16 05:27:08;;;;;;;6.57;4.10;;;;;;;16.20;72.08;92170.03;5003059;28;20041;-77
2022/08/16 05:29:35;;;;;;;6.10;3.70;;;;;;;16.25;72.14;92169.03;4985521;28;20087;-81
2022/08/16 05:32:06;;;;;;;6.72;4.38;;;;;;;16.30;72.35;92176.78;5012939;28;20503;-77
2022/08/16 05:34:33;;;;;;;6.63;3.90;;;;;;;16.34;72.66;92175.00;5008662;28;20083;-77
2022/08/16 05:36:58;;;;;;;6.38;4.15;;;;;;;16.42;72.82;92179.41;5014395;28;20029;-77
2022/08/16 05:39:32;;;;;;;8.13;4.13;;;;;;;16.51;72.96;92174.03;4981437;28;20034;-77
2022/08/16 05:41:58;;;;;;;6.82;4.28;;;;;;;16.60;73.08;92179.22;5003139;28;20037;-77
2022/08/16 05:44:23;;;;;;;7.53;4.32;;;;;;;16.73;73.73;92175.47;5013104;28;20063;-77
2022/08/16 05:46:53;;;;;;;7.30;4.20;;;;;;;16.80;73.63;92175.69;5025894;28;20061;-77
2022/08/16 05:49:19;;;;;;;8.65;4.75;;;;;;;16.88;72.97;92181.97;5010362;28;20056;-77
2022/08/16 05:51:46;;;;;;;8.00;4.63;;;;;;;17.01;72.21;92178.19;4991518;28;20180;-77
2022/08/16 05:54:16;;;;;;;9.95;4.55;;;;;;;17.16;71.62;92179.41;5005816;28;20034;-77
2022/08/16 05:56:44;;;;;;;8.13;4.22;;;;;;;17.32;71.67;92176.06;4988416;28;20040;-77
2022/08/16 05:59:11;;;;;;;10.50;5.10;;;;;;;17.44;70.86;92179.44;4962702;28;20045;-77
2022/08/16 06:01:39;;;;;;;11.35;4.53;;;;;;;17.59;70.32;92180.59;4996143;28;20052;-77
2022/08/16 06:04:07;;;;;;;10.55;4.70;;;;;;;17.73;70.33;92185.50;5031849;28;20072;-77
2022/08/16 06:06:42;;;;;;;9.30;5.18;;;;;;;17.90;69.79;92184.47;5012504;28;20025;-77
2022/08/16 06:09:08;;;;;;;6.55;4.30;;;;;;;18.06;69.75;92179.22;5013895;28;20029;-77
2022/08/16 06:11:34;;;;;;;9.63;4.70;;;;;;;18.22;69.08;92179.25;5013663;28;20045;-77
2022/08/16 06:14:03;;;;;;;8.23;4.68;;;;;;;18.38;68.44;92189.84;5013601;28;20569;-77
2022/08/16 06:16:41;;;;;;;6.30;3.85;;;;;;;18.74;67.71;92191.47;5011220;28;20053;-78
2022/08/16 06:19:07;;;;;;;6.57;3.97;;;;;;;19.44;66.11;92187.31;4996665;28;20046;-77
2022/08/16 06:21:37;;;;;;;8.35;3.90;;;;;;;20.17;63.63;92191.00;4994688;28;20041;-77
2022/08/16 06:24:04;;;;;;;6.18;3.97;;;;;;;20.92;61.12;92192.28;4994823;28;20482;-78
2022/08/16 06:26:32;;;;;;;7.75;4.05;;;;;;;21.53;60.63;92198.47;5004403;28;20455;-79
2022/08/16 06:28:58;;;;;;;9.55;3.97;;;;;;;22.06;55.55;92194.91;5000204;28;20068;-78
2022/08/16 06:31:31;;;;;;;7.30;4.20;;;;;;;22.87;56.00;92196.06;5015964;28;20049;-78
2022/08/16 06:33:57;;;;;;;6.28;3.83;;;;;;;23.44;53.50;92193.03;5011252;28;20095;-78
2022/08/16 06:36:25;;;;;;;7.32;4.25;;;;;;;23.96;51.95;92193.69;4998190;28;20033;-78
2022/08/16 06:38:58;;;;;;;9.65;4.25;;;;;;;24.53;50.63;92193.09;5013151;28;20068;-78
2022/08/16 06:41:37;;;;;;;6.30;3.88;;;;;;;25.13;48.42;92197.72;4997588;28;20037;-79
2022/08/16 06:44:07;;;;;;;5.63;3.90;;;;;;;25.65;45.38;92194.59;4983708;28;20048;-79
2022/08/16 06:46:36;;;;;;;6.15;4.13;;;;;;;26.12;44.65;92197.09;4998629;28;20042;-79
2022/08/16 06:49:10;;;;;;;7.43;3.97;;;;;;;26.18;45.27;92198.97;5016342;28;20026;-79
2022/08/16 06:51:38;;;;;;;8.02;4.60;;;;;;;25.32;46.33;92207.28;5018048;28;20545;-79
2022/08/16 06:54:05;;;;;;;9.25;4.53;;;;;;;24.65;49.33;92211.44;5015837;28;20045;-79
2022/08/16 06:56:31;;;;;;;10.90;5.00;;;;;;;24.09;51.24;92210.94;5012699;28;20029;-78
2022/08/16 06:59:06;;;;;;;11.82;4.80;;;;;;;23.49;53.16;92209.47;5014512;28;20513;-76
2022/08/16 07:01:35;;;;;;;9.05;5.07;;;;;;;23.40;55.12;92210.97;5015095;28;20101;-79
2022/08/16 07:04:01;;;;;;;7.82;4.82;;;;;;;23.71;52.87;92209.59;5018556;28;20060;-79
2022/08/16 07:06:32;;;;;;;9.60;5.25;;;;;;;23.54;51.68;92204.94;5017461;28;20037;-79
2022/08/16 07:09:00;;;;;;;11.60;4.85;;;;;;;23.53;53.40;92204.19;5004682;28;20049;-79
2022/08/16 07:11:29;;;;;;;7.68;4.57;;;;;;;23.58;51.90;92216.41;4997578;28;20141;-78
2022/08/16 07:13:55;;;;;;;8.27;4.60;;;;;;;23.37;51.72;92215.16;4981643;28;20154;-79
2022/08/16 07:16:24;;;;;;;9.13;4.90;;;;;;;23.43;52.72;92218.22;4997589;28;20033;-79
2022/08/16 07:18:50;;;;;;;9.70;4.90;;;;;;;23.16;54.46;92223.00;5004696;28;20038;-79
2022/08/16 07:21:15;;;;;;;9.65;4.68;;;;;;;23.02;54.51;92208.41;5016913;28;20088;-79
2022/08/16 07:23:44;;;;;;;9.20;4.90;;;;;;;22.62;57.05;92222.53;5018460;28;20550;-79
2022/08/16 07:26:17;;;;;;;9.98;5.35;;;;;;;22.61;56.79;92226.34;5001227;28;20037;-79
2022/08/16 07:28:42;;;;;;;8.55;4.30;;;;;;;22.43;52.13;92226.19;5016379;28;20379;-79
2022/08/16 07:31:09;;;;;;;12.68;4.43;;;;;;;22.64;54.83;92228.28;5016446;28;20045;-79
2022/08/16 07:33:41;;;;;;;9.65;4.93;;;;;;;22.36;55.03;92220.75;4986424;28;20049;-79
2022/08/16 07:36:08;;;;;;;12.68;5.10;;;;;;;22.13;57.10;92224.28;5016486;28;20037;-79
2022/08/16 07:38:38;;;;;;;7.60;4.82;;;;;;;21.88;58.96;92225.91;5017014;28;20061;-79
2022/08/16 07:41:04;;;;;;;8.75;5.35;;;;;;;22.16;58.90;92222.81;5016184;28;20077;-79
2022/08/16 07:43:33;;;;;;;8.30;4.95;;;;;;;22.39;57.73;92225.38;5000580;28;20128;-78
2022/08/16 07:46:02;;;;;;;9.05;4.55;;;;;;;22.37;56.69;92223.06;5016395;28;20041;-78
2022/08/16 07:48:32;;;;;;;8.60;4.80;;;;;;;22.62;54.84;92220.63;5016987;28;20040;-79
2022/08/16 07:50:57;;;;;;;8.48;4.70;;;;;;;22.99;55.35;92224.38;5000817;28;20041;-79
2022/08/16 07:53:23;;;;;;;10.75;4.57;;;;;;;23.04;56.58;92226.75;5016719;28;20038;-79
2022/08/16 07:55:49;;;;;;;9.93;4.82;;;;;;;23.00;55.72;92229.38;5000328;28;20029;-79
2022/08/16 07:58:22;;;;;;;7.95;4.70;;;;;;;22.64;55.71;92233.59;5002588;28;20052;-79
2022/08/16 08:00:48;;;;;;;7.43;4.82;;;;;;;22.43;56.02;92239.50;5020397;28;20411;-79
2022/08/16 08:03:14;;;;;;;9.13;4.60;;;;;;;22.15;57.31;92238.03;5003700;28;20038;-78
2022/08/16 08:05:39;;;;;;;9.18;5.25;;;;;;;22.13;57.37;92245.63;5003549;28;20104;-79
2022/08/16 08:08:07;;;;;;;9.88;5.30;;;;;;;22.24;57.68;92241.22;5019482;28;20038;-79
2022/08/16 08:10:32;;;;;;;7.97;4.68;;;;;;;22.56;56.58;92238.13;5003601;28;20042;-79
2022/08/16 08:12:59;;;;;;;8.30;4.50;;;;;;;22.82;54.96;92237.19;5004073;28;20033;-79
2022/08/16 08:15:26;;;;;;;6.85;4.45;;;;;;;23.17;52.28;92237.88;5019802;28;20412;-79
2022/08/16 08:17:53;;;;;;;10.10;4.53;;;;;;;23.00;50.85;92231.28;5003834;28;20446;-79
2022/08/16 08:20:25;;;;;;;6.43;4.13;;;;;;;23.10;51.83;92240.50;5004543;28;20053;-79
2022/08/16 08:22:52;;;;;;;7.03;4.50;;;;;;;22.86;52.76;92239.91;5017052;28;20072;-78
2022/08/16 08:25:21;;;;;;;7.00;4.10;;;;;;;22.96;52.81;92241.13;5003352;28;20041;-79
2022/08/16 08:27:47;;;;;;;7.60;4.82;;;;;;;23.16;52.19;92239.78;5019455;28;20026;-79
2022/08/16 08:30:14;;;;;;;7.80;4.40;;;;;;;23.23;53.45;92241.75;4983871;28;20052;-79
2022/08/16 08:32:41;;;;;;;6.53;4.40;;;;;;;23.30;53.95;92239.13;4983145;28;20222;-78
2022/08/16 08:35:08;;;;;;;8.35;4.60;;;;;;;23.36;53.07;92242.97;4999615;28;20471;-79
2022/08/16 08:37:35;;;;;;;7.85;4.40;;;;;;;23.35;50.14;92241.47;4999612;28;20046;-78
2022/08/16 08:40:05;;;;;;;8.07;4.65;;;;;;;23.01;51.81;92238.94;4999686;28;20030;-78
2022/08/16 08:42:31;;;;;;;7.70;4.53;;;;;;;22.91;50.99;92236.91;5019813;28;20520;-79
2022/08/16 08:44:57;;;;;;;9.73;5.03;;;;;;;22.84;51.49;92234.16;5018801;28;20040;-79
2022/08/16 08:47:22;;;;;;;8.55;4.40;;;;;;;22.97;52.00;92232.75;5019044;28;20042;-79
2022/08/16 08:49:48;;;;;;;11.13;4.55;;;;;;;23.37;51.24;92233.06;5019964;28;20038;-79
2022/08/16 08:52:15;;;;;;;8.07;4.22;;;;;;;23.29;50.32;92237.59;5002223;28;20060;-79
2022/08/16 08:54:41;;;;;;;13.18;4.55;;;;;;;23.07;51.06;92234.75;5019221;28;20385;-79
2022/08/16 08:57:07;;;;;;;7.82;4.50;;;;;;;23.21;52.14;92241.34;5002998;28;20101;-79
2022/08/16 08:59:45;;;;;;;6.97;4.28;;;;;;;23.47;50.41;92238.47;5018902;28;20045;-79
2022/08/16 09:02:15;;;;;;;10.40;4.20;;;;;;;23.56;49.88;92240.06;5022376;28;20041;-79
2022/08/16 09:04:47;;;;;;;8.90;4.65;;;;;;;23.32;50.76;92244.84;5023010;28;20045;-79
2022/08/16 09:07:16;;;;;;;8.93;4.40;;;;;;;23.21;51.28;92239.44;5022121;28;20164;-79
2022/08/16 09:09:42;;;;;;;8.02;4.55;;;;;;;23.41;51.30;92242.63;5021533;28;20192;-79
2022/08/16 09:12:10;;;;;;;7.72;4.32;;;;;;;23.52;51.93;92241.94;5022863;28;20068;-79
2022/08/16 09:14:44;;;;;;;7.57;4.47;;;;;;;23.86;50.24;92245.19;5022206;28;20044;-79
2022/08/16 09:17:11;;;;;;;12.38;4.75;;;;;;;23.96;50.75;92241.81;5006657;28;20037;-79
2022/08/16 09:19:37;;;;;;;10.63;4.60;;;;;;;24.00;50.85;92241.81;5022843;28;20514;-79
2022/08/16 09:22:05;;;;;;;7.30;4.63;;;;;;;23.87;51.48;92238.72;5022547;28;20440;-78
2022/08/16 09:24:32;;;;;;;7.65;4.53;;;;;;;23.84;51.05;92253.56;5005712;28;20045;-79
2022/08/16 09:26:58;;;;;;;7.63;4.30;;;;;;;23.88;51.26;92249.03;5021495;28;20040;-79
2022/08/16 09:29:24;;;;;;;7.32;4.50;;;;;;;23.90;52.11;92249.41;5021267;28;20030;-79
2022/08/16 09:31:50;;;;;;;8.10;4.57;;;;;;;23.83;49.76;92244.03;5005109;28;20041;-79
2022/08/16 09:34:16;;;;;;;10.02;4.60;;;;;;;23.97;50.46;92254.03;5024931;28;20037;-79
2022/08/16 09:36:42;;;;;;;9.57;4.60;;;;;;;24.12;51.02;92240.75;5002101;28;20104;-78
2022/08/16 09:39:08;;;;;;;9.40;4.55;;;;;;;23.95;50.74;92250.19;5018987;28;20025;-79
2022/08/16 09:41:34;;;;;;;7.95;4.53;;;;;;;24.03;49.61;92251.78;5019399;28;20049;-79
2022/08/16 09:44:02;;;;;;;7.43;3.63;;;;;;;24.03;49.07;92257.88;5019728;28;20042;-79
2022/08/16 09:46:29;;;;;;;7.15;4.75;;;;;;;24.09;49.63;92261.72;5001709;28;20075;-78
2022/08/16 09:48:57;;;;;;;8.13;4.40;;;;;;;23.89;49.74;92255.91;4985986;28;20107;-79
2022/08/16 09:51:25;;;;;;;8.30;4.70;;;;;;;24.05;49.60;92260.19;5002471;28;20034;-79
2022/08/16 09:53:52;;;;;;;8.07;4.53;;;;;;;24.26;49.49;92260.25;5001602;28;20037;-79
2022/08/16 09:56:30;;;;;;;7.70;4.35;;;;;;;24.15;48.52;92256.78;4985397;28;20412;-79
2022/08/16 09:58:57;;;;;;;6.85;4.50;;;;;;;24.26;48.20;92262.94;5001180;28;20506;-79
2022/08/16 10:01:23;;;;;;;7.88;4.30;;;;;;;24.28;48.86;92257.97;5018471;28;20046;-78
2022/08/16 10:03:50;;;;;;;11.77;4.82;;;;;;;24.50;48.06;92260.75;5001574;28;20450;-79
2022/08/16 10:06:18;;;;;;;7.32;4.50;;;;;;;24.59;49.57;92258.47;5002733;28;20124;-79
2022/08/16 10:08:44;;;;;;;9.60;4.50;;;;;;;24.88;48.51;92256.63;5000946;28;20041;-80
2022/08/16 10:13:54;;;;;;;9.15;4.55;;;;;;;25.41;48.02;92268.50;4986524;28;20307;-79
2022/08/16 10:16:20;;;;;;;8.68;4.20;;;;;;;25.59;46.28;92265.03;5029279;28;20029;-79
2022/08/16 10:18:46;;;;;;;8.75;4.60;;;;;;;25.49;47.71;92258.56;5021834;28;20045;-79
2022/08/16 10:21:14;;;;;;;6.25;4.50;;;;;;;25.18;46.36;92255.47;4975913;28;20045;-77
2022/08/16 10:23:40;;;;;;;7.70;4.20;;;;;;;24.98;46.85;92260.44;5001106;28;20046;-78
2022/08/16 10:26:06;;;;;;;9.63;4.20;;;;;;;25.07;48.70;92263.50;4998902;28;20040;-79
2022/08/16 10:28:33;;;;;;;7.63;4.82;;;;;;;24.97;46.05;92260.81;5017462;28;20038;-78
2022/08/16 10:31:00;;;;;;;6.72;4.30;;;;;;;25.00;47.00;92258.16;5014065;28;20041;-78
2022/08/16 10:33:27;;;;;;;9.18;4.70;;;;;;;25.07;46.14;92257.38;5014971;28;20054;-78
2022/08/16 10:35:53;;;;;;;6.18;3.85;;;;;;;25.11;46.01;92258.16;5016003;28;20038;-78
2022/08/16 10:38:19;;;;;;;7.75;4.43;;;;;;;24.90;46.23;92254.31;5008702;28;20045;-77
2022/08/16 10:40:45;;;;;;;5.85;4.40;;;;;;;24.93;47.91;92258.16;4998521;28;20037;-78
2022/08/16 10:43:11;;;;;;;8.82;4.40;;;;;;;24.61;45.57;92252.72;5005773;28;20041;-78
2022/08/16 10:45:37;;;;;;;9.45;4.68;;;;;;;24.95;46.05;92247.81;4997322;28;20033;-77
2022/08/16 10:48:06;;;;;;;6.10;4.40;;;;;;;25.14;46.15;92252.78;5008887;28;20037;-78
2022/08/16 10:50:31;;;;;;;11.00;4.88;;;;;;;25.30;46.48;92259.69;5026604;28;20045;-78
2022/08/16 10:52:58;;;;;;;6.90;4.88;;;;;;;25.44;47.40;92254.31;5020536;28;20044;-80
2022/08/16 10:55:24;;;;;;;7.82;4.53;;;;;;;24.97;45.14;92248.22;5020737;28;20021;-78
2022/08/16 10:57:49;;;;;;;12.93;4.50;;;;;;;25.17;47.76;92248.56;5010266;28;20543;-78
2022/08/16 11:00:17;;;;;;;9.18;4.80;;;;;;;25.38;48.40;92250.53;5002361;28;20466;-78
2022/08/16 11:02:43;;;;;;;8.95;5.00;;;;;;;25.53;47.28;92245.91;5028197;28;20136;-77
2022/08/16 11:05:13;;;;;;;10.00;4.57;;;;;;;25.51;47.26;92248.97;4978517;28;20427;-78
2022/08/16 11:07:40;;;;;;;8.70;4.53;;;;;;;25.61;45.87;92247.41;5003291;28;20571;-78
2022/08/16 11:10:07;;;;;;;9.57;5.00;;;;;;;25.84;46.03;92241.63;5017330;28;20113;-78
2022/08/16 11:12:32;;;;;;;9.85;4.68;;;;;;;25.91;46.32;92255.03;4995184;28;20041;-79
2022/08/16 11:14:58;;;;;;;8.13;4.95;;;;;;;26.10;45.98;92255.75;5012059;28;20049;-78
2022/08/16 11:17:23;;;;;;;8.52;4.75;;;;;;;25.85;46.21;92261.94;5012955;28;20091;-78
2022/08/16 11:19:49;;;;;;;7.93;4.72;;;;;;;25.89;46.24;92262.69;5023412;28;20111;-78
2022/08/16 11:22:14;;;;;;;9.65;5.57;;;;;;;26.10;46.70;92267.25;5015821;28;20511;-78
2022/08/16 11:24:41;;;;;;;9.75;4.28;;;;;;;25.89;45.62;92262.69;5014160;28;20410;-78
2022/08/16 11:27:09;;;;;;;7.50;4.82;;;;;;;25.87;46.17;92259.66;5014021;28;20395;-79
2022/08/16 11:29:34;;;;;;;10.25;4.97;;;;;;;26.01;46.80;92258.06;5030946;28;20030;-78
2022/08/16 11:32:04;;;;;;;7.03;4.82;;;;;;;26.11;45.98;92259.94;5014340;28;20408;-78
2022/08/16 11:34:31;;;;;;;9.57;5.00;;;;;;;25.92;46.08;92267.28;5035316;28;20041;-78
2022/08/16 11:36:58;;;;;;;6.93;3.75;;;;;;;25.85;45.40;92267.28;5037382;28;20037;-78
2022/08/16 11:39:24;;;;;;;8.27;5.03;;;;;;;25.55;47.96;92276.50;5019771;28;20391;-78
2022/08/16 11:41:49;;;;;;;10.52;5.30;;;;;;;25.50;46.50;92271.56;5020215;28;20056;-78